Winchester, VA

12:04 AM EST on March 07, 2015 (GMT -0500)
Health Professions Building | Change Station
CLOSE
Current Station
Personal Weather Station
Location: Winchester, VA
Elevation: 873 ft
Nearby Weather Stations

Elev 873 ft 39.20 °N, 78.19 °W | Updated 1 minute ago

Clear
Clear
17.1 °F
Feels Like 17 °F
N
0.0
Wind Variable Wind from SSW
Gusts 0.0 mph

Today
High -- | Low -- °F
--% Chance of Precip.
Yesterday
High -- | Low -- °F
Precip. -- in
6:36 AM 6:11 PM
Full, 98% visible
Pressure 30.35 in
Visibility 10.0 miles
Clouds Clear
Windchill 17 °F
Dew Point 8 °F
Humidity 68%
Rainfall 0.00 in
Snow Depth Not available.
UV 0 out of 12
Pollen 1.40 out of 12
Air Quality Not available.
Flu Activity Not available.
METAR KOKV 070455Z AUTO 00000KT 10SM CLR M11/M16 A3035 RMK AO2

More Conditions Fewer Conditions

Pressure 30.35 in
Visibility 10.0 miles
Clouds Clear
Windchill 17 °F
Dew Point 8 °F
Humidity 68%
Rainfall 0.00 in
Snow Depth Not available.
UV 0 out of 12
Pollen 1.40 out of 12
Air Quality Not available.
Flu Activity Not available.
METAR KOKV 070455Z AUTO 00000KT 10SM CLR M11/M16 A3035 RMK AO2

More Conditions Fewer Conditions

10-Day Weather Forecast

Almanac

Astronomy

Mar. 07, 2015 Rise Set
Actual Time
Civil Twilight
Nautical Twilight
Astronomical Twilight
Moon
Length of Visible Light
Length of Day
Tomorrow will be .
, % of the Moon is Illuminated

Today's Extremes

State Highs State Lows

Community

WunderPhotos

Upload Photos

1,803,548 photos uploaded!

WunderBlogs® & News

Nearby

Air Quality

  Air Quality AQ Index Pollutant
Not available.

Snow Depth

Station Depth Elevation

Earthquake Activity

City Distance Mag. Time & Date
Minimum magnitude displayed is 2.5.

Coastal Water Temperatures

Place Temperature

Nearby Weather Stations